sensor_id;sensor_type;location;lat;lon;timestamp;P1;durP1;ratioP1;P2;durP2;ratioP2
49820;SDS011;36893;52.520;13.450;2023-09-19T00:08:55;2.25;;;0.88;;
49820;SDS011;36893;52.520;13.450;2023-09-19T00:18:56;2.38;;;0.90;;
49820;SDS011;36893;52.520;13.450;2023-09-19T00:28:58;1.85;;;1.00;;
49820;SDS011;36893;52.520;13.450;2023-09-19T00:39:08;1.70;;;0.80;;
49820;SDS011;36893;52.520;13.450;2023-09-19T00:49:10;1.63;;;0.98;;
49820;SDS011;36893;52.520;13.450;2023-09-19T00:59:12;1.63;;;0.90;;
49820;SDS011;36893;52.520;13.450;2023-09-19T01:09:12;2.47;;;1.00;;
49820;SDS011;36893;52.520;13.450;2023-09-19T01:19:20;3.90;;;0.83;;
49820;SDS011;36893;52.520;13.450;2023-09-19T01:30:14;2.97;;;0.83;;
49820;SDS011;36893;52.520;13.450;2023-09-19T01:40:22;1.48;;;0.60;;
49820;SDS011;36893;52.520;13.450;2023-09-19T01:50:32;1.65;;;0.75;;
49820;SDS011;36893;52.520;13.450;2023-09-19T02:00:43;1.60;;;0.80;;
49820;SDS011;36893;52.520;13.450;2023-09-19T02:10:46;1.80;;;0.60;;
49820;SDS011;36893;52.520;13.450;2023-09-19T02:20:48;1.20;;;0.70;;
49820;SDS011;36893;52.520;13.450;2023-09-19T02:30:51;1.80;;;0.70;;
49820;SDS011;36893;52.520;13.450;2023-09-19T02:40:54;1.40;;;0.80;;
49820;SDS011;36893;52.520;13.450;2023-09-19T02:50:55;1.40;;;0.77;;
49820;SDS011;36893;52.520;13.450;2023-09-19T03:00:56;2.00;;;0.73;;
49820;SDS011;36893;52.520;13.450;2023-09-19T03:10:57;3.83;;;0.87;;
49820;SDS011;36893;52.520;13.450;2023-09-19T03:21:00;1.83;;;0.70;;
49820;SDS011;36893;52.520;13.450;2023-09-19T03:31:02;2.30;;;0.93;;
49820;SDS011;36893;52.520;13.450;2023-09-19T03:41:04;1.25;;;0.77;;
49820;SDS011;36893;52.520;13.450;2023-09-19T03:51:05;0.70;;;0.40;;
49820;SDS011;36893;52.520;13.450;2023-09-19T04:01:06;2.50;;;0.60;;
49820;SDS011;36893;52.520;13.450;2023-09-19T04:11:06;1.87;;;0.80;;
49820;SDS011;36893;52.520;13.450;2023-09-19T04:21:07;1.33;;;0.70;;
49820;SDS011;36893;52.520;13.450;2023-09-19T04:31:09;2.65;;;0.50;;
49820;SDS011;36893;52.520;13.450;2023-09-19T04:41:10;3.30;;;0.80;;
49820;SDS011;36893;52.520;13.450;2023-09-19T04:51:10;1.30;;;0.60;;
49820;SDS011;36893;52.520;13.450;2023-09-19T05:01:11;1.60;;;0.70;;
49820;SDS011;36893;52.520;13.450;2023-09-19T05:11:15;1.83;;;0.70;;
49820;SDS011;36893;52.520;13.450;2023-09-19T05:21:15;1.17;;;0.50;;
49820;SDS011;36893;52.520;13.450;2023-09-19T05:31:17;2.50;;;1.00;;
49820;SDS011;36893;52.520;13.450;2023-09-19T05:41:18;4.05;;;1.00;;
49820;SDS011;36893;52.520;13.450;2023-09-19T05:51:22;0.53;;;0.40;;
49820;SDS011;36893;52.520;13.450;2023-09-19T06:01:25;1.80;;;0.70;;
49820;SDS011;36893;52.520;13.450;2023-09-19T06:11:27;2.17;;;0.65;;
49820;SDS011;36893;52.520;13.450;2023-09-19T06:21:33;1.13;;;0.60;;
49820;SDS011;36893;52.520;13.450;2023-09-19T06:31:54;6.18;;;1.20;;
49820;SDS011;36893;52.520;13.450;2023-09-19T06:41:55;5.57;;;1.08;;
49820;SDS011;36893;52.520;13.450;2023-09-19T06:51:56;4.10;;;1.00;;
49820;SDS011;36893;52.520;13.450;2023-09-19T07:01:57;2.77;;;1.27;;
49820;SDS011;36893;52.520;13.450;2023-09-19T07:11:59;4.87;;;1.30;;
49820;SDS011;36893;52.520;13.450;2023-09-19T07:22:00;3.30;;;1.13;;
49820;SDS011;36893;52.520;13.450;2023-09-19T07:32:02;3.97;;;0.93;;
49820;SDS011;36893;52.520;13.450;2023-09-19T07:42:04;2.00;;;0.90;;
49820;SDS011;36893;52.520;13.450;2023-09-19T07:52:07;3.28;;;1.10;;
49820;SDS011;36893;52.520;13.450;2023-09-19T08:12:16;2.63;;;1.23;;
49820;SDS011;36893;52.520;13.450;2023-09-19T08:22:17;2.33;;;1.27;;
49820;SDS011;36893;52.520;13.450;2023-09-19T08:32:17;2.67;;;1.20;;
49820;SDS011;36893;52.520;13.450;2023-09-19T08:42:23;2.30;;;1.10;;
49820;SDS011;36893;52.520;13.450;2023-09-19T08:52:25;9.30;;;1.27;;
49820;SDS011;36893;52.520;13.450;2023-09-19T09:02:37;2.63;;;1.30;;
49820;SDS011;36893;52.520;13.450;2023-09-19T09:12:41;2.42;;;0.90;;
49820;SDS011;36893;52.520;13.450;2023-09-19T09:22:50;1.50;;;0.70;;
49820;SDS011;36893;52.520;13.450;2023-09-19T09:33:11;2.55;;;0.93;;
49820;SDS011;36893;52.520;13.450;2023-09-19T09:53:45;1.52;;;1.02;;
49820;SDS011;36893;52.520;13.450;2023-09-19T10:03:45;5.87;;;1.13;;
49820;SDS011;36893;52.520;13.450;2023-09-19T10:13:51;4.50;;;1.33;;
49820;SDS011;36893;52.520;13.450;2023-09-19T10:23:53;3.17;;;1.27;;
49820;SDS011;36893;52.520;13.450;2023-09-19T10:33:56;2.47;;;1.20;;
49820;SDS011;36893;52.520;13.450;2023-09-19T10:43:58;5.17;;;1.30;;
49820;SDS011;36893;52.520;13.450;2023-09-19T10:54:01;3.78;;;1.00;;
49820;SDS011;36893;52.520;13.450;2023-09-19T11:04:32;2.05;;;1.10;;
49820;SDS011;36893;52.520;13.450;2023-09-19T11:14:39;4.20;;;1.63;;
49820;SDS011;36893;52.520;13.450;2023-09-19T11:24:41;3.72;;;1.13;;
49820;SDS011;36893;52.520;13.450;2023-09-19T11:34:42;3.37;;;1.10;;
49820;SDS011;36893;52.520;13.450;2023-09-19T11:44:48;3.72;;;1.20;;
49820;SDS011;36893;52.520;13.450;2023-09-19T11:54:57;3.00;;;1.20;;
49820;SDS011;36893;52.520;13.450;2023-09-19T12:05:01;5.15;;;1.30;;
49820;SDS011;36893;52.520;13.450;2023-09-19T12:15:03;9.43;;;1.63;;
49820;SDS011;36893;52.520;13.450;2023-09-19T12:25:05;2.15;;;0.98;;
49820;SDS011;36893;52.520;13.450;2023-09-19T12:35:07;6.97;;;1.10;;
49820;SDS011;36893;52.520;13.450;2023-09-19T12:45:11;3.28;;;0.80;;
49820;SDS011;36893;52.520;13.450;2023-09-19T12:55:26;2.22;;;0.90;;
49820;SDS011;36893;52.520;13.450;2023-09-19T13:05:51;1.42;;;0.85;;
49820;SDS011;36893;52.520;13.450;2023-09-19T13:15:57;2.42;;;0.93;;
49820;SDS011;36893;52.520;13.450;2023-09-19T13:25:58;2.87;;;0.70;;
49820;SDS011;36893;52.520;13.450;2023-09-19T13:35:58;1.50;;;0.80;;
49820;SDS011;36893;52.520;13.450;2023-09-19T13:45:59;1.03;;;0.70;;
49820;SDS011;36893;52.520;13.450;2023-09-19T13:56:00;2.17;;;0.73;;
49820;SDS011;36893;52.520;13.450;2023-09-19T14:06:00;2.43;;;0.80;;
49820;SDS011;36893;52.520;13.450;2023-09-19T14:16:05;2.10;;;0.90;;
49820;SDS011;36893;52.520;13.450;2023-09-19T14:26:08;2.10;;;1.00;;
49820;SDS011;36893;52.520;13.450;2023-09-19T14:36:09;3.30;;;0.77;;
49820;SDS011;36893;52.520;13.450;2023-09-19T14:46:10;2.57;;;0.83;;
49820;SDS011;36893;52.520;13.450;2023-09-19T14:56:11;2.97;;;1.00;;
49820;SDS011;36893;52.520;13.450;2023-09-19T15:06:13;1.70;;;0.87;;
49820;SDS011;36893;52.520;13.450;2023-09-19T15:16:21;4.47;;;1.38;;
49820;SDS011;36893;52.520;13.450;2023-09-19T15:26:22;2.93;;;1.10;;
49820;SDS011;36893;52.520;13.450;2023-09-19T15:36:25;2.58;;;0.95;;
49820;SDS011;36893;52.520;13.450;2023-09-19T15:46:27;5.20;;;1.10;;
49820;SDS011;36893;52.520;13.450;2023-09-19T15:56:29;7.97;;;1.13;;
49820;SDS011;36893;52.520;13.450;2023-09-19T16:06:30;3.88;;;1.02;;
49820;SDS011;36893;52.520;13.450;2023-09-19T16:16:31;1.88;;;0.85;;
49820;SDS011;36893;52.520;13.450;2023-09-19T16:26:33;2.63;;;1.00;;
49820;SDS011;36893;52.520;13.450;2023-09-19T16:36:33;2.93;;;1.20;;
49820;SDS011;36893;52.520;13.450;2023-09-19T16:46:34;3.85;;;1.17;;
49820;SDS011;36893;52.520;13.450;2023-09-19T16:56:36;6.38;;;1.63;;
49820;SDS011;36893;52.520;13.450;2023-09-19T17:06:38;5.47;;;1.40;;
49820;SDS011;36893;52.520;13.450;2023-09-19T17:16:39;9.40;;;1.40;;
49820;SDS011;36893;52.520;13.450;2023-09-19T17:26:41;4.35;;;1.10;;
49820;SDS011;36893;52.520;13.450;2023-09-19T17:36:42;3.40;;;1.40;;
49820;SDS011;36893;52.520;13.450;2023-09-19T17:46:43;3.47;;;1.40;;
49820;SDS011;36893;52.520;13.450;2023-09-19T17:56:44;4.73;;;2.00;;
49820;SDS011;36893;52.520;13.450;2023-09-19T18:06:44;6.13;;;2.00;;
49820;SDS011;36893;52.520;13.450;2023-09-19T18:16:48;5.88;;;1.77;;
49820;SDS011;36893;52.520;13.450;2023-09-19T18:26:49;6.10;;;1.83;;
49820;SDS011;36893;52.520;13.450;2023-09-19T18:36:50;5.13;;;2.10;;
49820;SDS011;36893;52.520;13.450;2023-09-19T18:46:50;8.10;;;2.07;;
49820;SDS011;36893;52.520;13.450;2023-09-19T18:56:52;6.13;;;1.90;;
49820;SDS011;36893;52.520;13.450;2023-09-19T19:06:53;5.67;;;1.53;;
49820;SDS011;36893;52.520;13.450;2023-09-19T19:16:53;4.63;;;2.07;;
49820;SDS011;36893;52.520;13.450;2023-09-19T19:26:54;4.77;;;1.87;;
49820;SDS011;36893;52.520;13.450;2023-09-19T19:36:55;3.40;;;1.33;;
49820;SDS011;36893;52.520;13.450;2023-09-19T19:46:55;5.53;;;1.63;;
49820;SDS011;36893;52.520;13.450;2023-09-19T19:56:56;3.90;;;1.60;;
49820;SDS011;36893;52.520;13.450;2023-09-19T20:06:57;5.03;;;1.47;;
49820;SDS011;36893;52.520;13.450;2023-09-19T20:16:57;5.30;;;1.60;;
49820;SDS011;36893;52.520;13.450;2023-09-19T20:26:59;4.60;;;1.13;;
49820;SDS011;36893;52.520;13.450;2023-09-19T20:37:01;3.50;;;1.35;;
49820;SDS011;36893;52.520;13.450;2023-09-19T20:47:01;3.60;;;1.23;;
49820;SDS011;36893;52.520;13.450;2023-09-19T20:57:03;4.72;;;1.65;;
49820;SDS011;36893;52.520;13.450;2023-09-19T21:07:04;5.13;;;1.30;;
49820;SDS011;36893;52.520;13.450;2023-09-19T21:17:06;6.60;;;1.30;;
49820;SDS011;36893;52.520;13.450;2023-09-19T21:27:07;3.33;;;1.23;;
49820;SDS011;36893;52.520;13.450;2023-09-19T21:37:07;5.65;;;1.90;;
49820;SDS011;36893;52.520;13.450;2023-09-19T21:47:13;4.47;;;1.40;;
49820;SDS011;36893;52.520;13.450;2023-09-19T21:57:14;7.03;;;1.60;;
49820;SDS011;36893;52.520;13.450;2023-09-19T22:07:15;5.13;;;1.40;;
49820;SDS011;36893;52.520;13.450;2023-09-19T22:17:15;3.33;;;1.50;;
49820;SDS011;36893;52.520;13.450;2023-09-19T22:27:16;4.17;;;1.40;;
49820;SDS011;36893;52.520;13.450;2023-09-19T22:37:20;6.45;;;1.58;;
49820;SDS011;36893;52.520;13.450;2023-09-19T22:47:24;5.13;;;1.42;;
49820;SDS011;36893;52.520;13.450;2023-09-19T22:57:25;5.85;;;1.42;;
49820;SDS011;36893;52.520;13.450;2023-09-19T23:07:27;5.13;;;1.20;;
49820;SDS011;36893;52.520;13.450;2023-09-19T23:17:28;2.40;;;1.13;;
49820;SDS011;36893;52.520;13.450;2023-09-19T23:27:31;4.13;;;1.40;;
49820;SDS011;36893;52.520;13.450;2023-09-19T23:37:34;3.58;;;1.35;;
49820;SDS011;36893;52.520;13.450;2023-09-19T23:47:34;3.87;;;1.43;;
49820;SDS011;36893;52.520;13.450;2023-09-19T23:57:36;2.75;;;1.05;;
